createdAt,value
2023-04-02T00:02:22.943Z,5.58
2023-04-02T00:05:20.573Z,5.56
2023-04-02T00:07:49.917Z,5.55
2023-04-02T00:10:35.109Z,5.53
2023-04-02T00:13:11.141Z,5.46
2023-04-02T00:15:39.495Z,5.49
2023-04-02T00:18:07.290Z,5.54
2023-04-02T00:20:40.819Z,5.54
2023-04-02T00:23:11.448Z,5.46
2023-04-02T00:25:45.759Z,5.48
2023-04-02T00:28:15.356Z,5.48
2023-04-02T00:30:51.198Z,5.51
2023-04-02T00:33:21.029Z,5.45
2023-04-02T00:35:50.825Z,5.40
2023-04-02T00:38:30.090Z,5.37
2023-04-02T00:40:59.821Z,5.29
2023-04-02T00:43:30.608Z,5.21
2023-04-02T00:46:01.362Z,5.18
2023-04-02T00:48:31.409Z,5.15
2023-04-02T00:51:28.376Z,5.12
2023-04-02T00:53:58.152Z,5.06
2023-04-02T00:56:40.875Z,4.87
2023-04-02T00:59:25.031Z,4.78
2023-04-02T01:02:11.290Z,4.76
2023-04-02T01:04:38.806Z,4.82
2023-04-02T01:07:10.564Z,4.87
2023-04-02T01:09:40.165Z,4.90
2023-04-02T01:12:33.050Z,4.92
2023-04-02T01:15:24.626Z,4.94
2023-04-02T01:18:33.303Z,4.94
2023-04-02T01:21:07.175Z,4.91
2023-04-02T01:23:42.932Z,4.97
2023-04-02T01:26:09.616Z,4.96
2023-04-02T01:29:00.962Z,4.94
2023-04-02T01:31:29.806Z,4.91
2023-04-02T01:33:57.053Z,4.96
2023-04-02T01:36:41.957Z,4.94
2023-04-02T01:39:26.930Z,4.94
2023-04-02T01:42:15.959Z,4.94
2023-04-02T01:44:52.958Z,4.93
2023-04-02T01:47:25.575Z,4.91
2023-04-02T01:50:21.030Z,4.91
2023-04-02T01:52:55.600Z,4.98
2023-04-02T01:55:47.237Z,4.99
2023-04-02T01:58:19.745Z,4.98
2023-04-02T02:01:12.307Z,4.91
2023-04-02T02:03:42.218Z,4.96
2023-04-02T02:06:14.762Z,4.94
2023-04-02T02:08:58.448Z,4.91
2023-04-02T02:11:28.988Z,4.88
2023-04-02T02:14:00.353Z,4.92
2023-04-02T02:16:29.526Z,4.89
2023-04-02T02:19:00.901Z,4.93
2023-04-02T02:21:47.051Z,4.92
2023-04-02T02:24:26.728Z,4.95
2023-04-02T02:27:22.719Z,4.95
2023-04-02T02:30:09.796Z,4.90
2023-04-02T02:32:39.693Z,4.92
2023-04-02T02:35:22.159Z,4.98
2023-04-02T02:38:02.502Z,4.98
2023-04-02T02:40:40.830Z,4.86
2023-04-02T02:43:12.504Z,4.79
2023-04-02T02:45:41.469Z,4.82
2023-04-02T02:48:13.791Z,4.84
2023-04-02T02:50:41.880Z,4.87
2023-04-02T02:53:24.373Z,4.91
2023-04-02T02:55:57.701Z,4.94
2023-04-02T02:58:32.004Z,4.98
2023-04-02T03:01:06.820Z,4.89
2023-04-02T03:03:36.429Z,4.91
2023-04-02T03:06:10.748Z,4.93
2023-04-02T03:08:46.577Z,5.00
2023-04-02T03:11:43.013Z,4.91
2023-04-02T03:14:32.704Z,4.96
2023-04-02T03:17:12.236Z,5.00
2023-04-02T03:19:50.556Z,4.99
2023-04-02T03:22:32.229Z,4.90
2023-04-02T03:25:04.976Z,4.96
2023-04-02T03:27:39.989Z,4.89
2023-04-02T03:30:16.186Z,4.95
2023-04-02T03:32:47.177Z,4.92
2023-04-02T03:35:46.580Z,4.93
2023-04-02T03:38:23.615Z,4.80
2023-04-02T03:41:02.532Z,4.85
2023-04-02T03:43:57.314Z,4.93
2023-04-02T03:46:47.305Z,4.85
2023-04-02T03:49:20.484Z,4.81
2023-04-02T03:52:12.278Z,4.84
2023-04-02T03:54:41.174Z,4.78
2023-04-02T03:57:32.068Z,4.73
2023-04-02T04:00:19.937Z,4.74
2023-04-02T04:02:59.988Z,4.79
2023-04-02T04:05:35.509Z,4.78
2023-04-02T04:08:06.560Z,4.77
2023-04-02T04:10:35.556Z,4.81
2023-04-02T04:13:16.280Z,4.79
2023-04-02T04:15:46.158Z,4.76
2023-04-02T04:18:24.034Z,4.72
2023-04-02T04:20:57.004Z,4.75
2023-04-02T04:26:31.321Z,4.66
2023-04-02T04:29:15.684Z,4.64
2023-04-02T04:31:50.769Z,4.67
2023-04-02T04:34:22.946Z,4.60
2023-04-02T04:36:54.803Z,4.61
2023-04-02T04:39:43.074Z,4.57
2023-04-02T04:42:21.086Z,4.55
2023-04-02T04:45:08.014Z,4.51
2023-04-02T04:47:57.315Z,4.46
2023-04-02T04:50:33.352Z,4.49
2023-04-02T04:53:17.435Z,4.55
2023-04-02T04:55:45.795Z,4.52
2023-04-02T04:58:24.985Z,4.51
2023-04-02T05:01:09.269Z,4.50
2023-04-02T05:03:49.501Z,4.47
2023-04-02T05:07:04.951Z,4.33
2023-04-02T05:09:36.162Z,4.32
2023-04-02T05:12:43.821Z,4.35
2023-04-02T05:15:20.859Z,4.34
2023-04-02T05:18:12.210Z,4.31
2023-04-02T05:20:57.765Z,4.32
2023-04-02T05:23:27.417Z,4.39
2023-04-02T05:25:56.113Z,4.37
2023-04-02T05:28:34.645Z,4.50
2023-04-02T05:31:12.263Z,4.58
2023-04-02T05:33:40.633Z,4.63
2023-04-02T05:36:18.744Z,4.69
2023-04-02T05:38:51.178Z,4.70
2023-04-02T05:41:36.900Z,4.82
2023-04-02T05:44:15.600Z,4.92
2023-04-02T05:46:49.792Z,4.96
2023-04-02T05:49:33.448Z,5.07
2023-04-02T05:52:03.649Z,5.10
2023-04-02T05:54:54.630Z,5.08
2023-04-02T05:57:42.422Z,5.13
2023-04-02T06:00:20.359Z,5.22
2023-04-02T06:02:56.555Z,5.17
2023-04-02T06:05:28.955Z,5.22
2023-04-02T06:08:03.374Z,5.35
2023-04-02T06:10:34.235Z,5.40
2023-04-02T06:13:08.678Z,5.43
2023-04-02T06:15:42.330Z,5.32
2023-04-02T06:18:24.421Z,5.41
2023-04-02T06:20:52.657Z,5.52
2023-04-02T06:23:32.762Z,5.55
2023-04-02T06:26:29.015Z,5.73
2023-04-02T06:29:02.654Z,5.81
2023-04-02T06:31:50.711Z,5.74
2023-04-02T06:34:22.671Z,5.69
2023-04-02T06:37:11.923Z,5.71
2023-04-02T06:39:38.603Z,5.70
2023-04-02T06:42:10.924Z,5.84
2023-04-02T06:44:56.377Z,5.94
2023-04-02T06:47:47.268Z,5.92
2023-04-02T06:50:31.339Z,6.02
2023-04-02T06:53:06.398Z,6.09
2023-04-02T06:55:49.718Z,6.27
2023-04-02T06:58:21.631Z,6.42
2023-04-02T07:00:50.718Z,6.52
2023-04-02T07:03:31.717Z,6.51
2023-04-02T07:06:03.997Z,6.72
2023-04-02T07:08:32.627Z,6.90
2023-04-02T07:10:59.652Z,6.88
2023-04-02T07:13:27.124Z,6.84
2023-04-02T07:15:55.274Z,6.96
2023-04-02T07:18:32.217Z,7.05
2023-04-02T07:21:01.877Z,7.15
2023-04-02T07:23:29.040Z,7.21
2023-04-02T07:25:57.021Z,7.27
2023-04-02T07:28:24.209Z,7.45
2023-04-02T07:30:51.726Z,7.70
2023-04-02T07:33:22.132Z,7.65
2023-04-02T07:35:50.060Z,7.81
2023-04-02T07:38:16.804Z,7.96
2023-04-02T07:40:43.522Z,8.00
2023-04-02T07:43:10.825Z,8.18
2023-04-02T07:45:38.035Z,8.28
2023-04-02T07:48:10.581Z,8.31
2023-04-02T07:50:37.304Z,8.54
2023-04-02T07:53:04.440Z,8.65
2023-04-02T07:55:31.279Z,8.84
2023-04-02T07:57:59.727Z,8.87
2023-04-02T08:00:28.370Z,8.92
2023-04-02T08:02:55.513Z,8.92
2023-04-02T08:05:22.697Z,8.77
2023-04-02T08:07:57.136Z,8.91
2023-04-02T08:10:24.278Z,8.76
2023-04-02T08:12:51.139Z,8.78
2023-04-02T08:15:18.719Z,8.81
2023-04-02T08:17:46.419Z,8.96
2023-04-02T08:20:19.154Z,8.95
2023-04-02T08:22:46.829Z,8.96
2023-04-02T08:25:14.086Z,8.82
2023-04-02T08:27:41.192Z,8.89
2023-04-02T08:30:09.631Z,8.88
2023-04-02T08:32:36.459Z,8.81
2023-04-02T08:35:03.278Z,8.59
2023-04-02T08:37:29.974Z,8.56
2023-04-02T08:39:56.737Z,8.59
2023-04-02T08:42:34.540Z,8.73
2023-04-02T08:45:30.708Z,8.65
2023-04-02T08:47:59.918Z,8.67
2023-04-02T08:50:41.255Z,8.43
2023-04-02T08:53:16.649Z,8.55
2023-04-02T08:55:55.767Z,8.73
2023-04-02T08:58:46.935Z,8.89
2023-04-02T09:01:38.538Z,8.81
2023-04-02T09:04:13.718Z,9.00
2023-04-02T09:06:41.990Z,9.10
2023-04-02T09:09:09.036Z,9.19
2023-04-02T09:11:49.242Z,9.34
2023-04-02T09:14:49.188Z,9.35
2023-04-02T09:17:20.858Z,9.21
2023-04-02T09:20:13.179Z,9.19
2023-04-02T09:22:40.196Z,9.29
2023-04-02T09:25:14.186Z,9.28
2023-04-02T09:27:40.971Z,9.31
2023-04-02T09:30:27.528Z,9.36
2023-04-02T09:32:55.271Z,9.36
2023-04-02T09:35:26.655Z,9.14
2023-04-02T09:38:23.003Z,9.19
2023-04-02T09:41:07.055Z,9.18
2023-04-02T09:43:36.404Z,9.31
2023-04-02T09:46:06.252Z,9.43
2023-04-02T09:48:34.559Z,9.43
2023-04-02T09:51:12.764Z,9.35
2023-04-02T09:53:42.577Z,9.33
2023-04-02T09:56:16.925Z,9.26
2023-04-02T09:58:45.294Z,9.06
2023-04-02T10:01:28.942Z,8.72
2023-04-02T10:03:56.416Z,8.49
2023-04-02T10:06:23.188Z,8.28
2023-04-02T10:08:49.912Z,8.16
2023-04-02T10:11:46.343Z,8.04
2023-04-02T10:14:21.625Z,7.90
2023-04-02T10:16:55.987Z,7.87
2023-04-02T10:19:32.434Z,7.79
2023-04-02T10:22:03.896Z,7.92
2023-04-02T10:24:30.639Z,7.90
2023-04-02T10:27:22.828Z,7.95
2023-04-02T10:30:02.259Z,8.01
2023-04-02T10:32:51.135Z,8.13
2023-04-02T10:35:23.356Z,8.25
2023-04-02T10:38:14.050Z,8.37
2023-04-02T10:40:49.237Z,8.44
2023-04-02T10:44:06.157Z,8.96
2023-04-02T10:46:58.091Z,9.59
2023-04-02T10:49:35.579Z,9.98
2023-04-02T10:52:13.669Z,9.97
2023-04-02T10:54:43.204Z,9.67
2023-04-02T10:57:22.323Z,9.46
2023-04-02T10:59:55.091Z,9.24
2023-04-02T11:03:15.893Z,8.88
2023-04-02T11:05:47.312Z,8.61
2023-04-02T11:08:22.603Z,8.66
2023-04-02T11:11:05.505Z,8.97
2023-04-02T11:13:58.260Z,8.99
2023-04-02T11:16:25.912Z,8.92
2023-04-02T11:19:17.573Z,8.52
2023-04-02T11:21:58.727Z,8.32
2023-04-02T11:24:37.103Z,8.47
2023-04-02T11:27:10.002Z,8.66
2023-04-02T11:29:49.238Z,8.69
2023-04-02T11:32:27.574Z,8.70
2023-04-02T11:35:05.839Z,8.71
2023-04-02T11:37:40.175Z,8.69
2023-04-02T11:40:15.683Z,8.67
2023-04-02T11:42:47.124Z,8.69
2023-04-02T11:45:28.863Z,8.66
2023-04-02T11:48:01.933Z,8.78
2023-04-02T11:50:42.724Z,8.74
2023-04-02T11:53:12.456Z,8.91
2023-04-02T11:55:42.180Z,9.05
2023-04-02T11:58:33.466Z,9.12
2023-04-02T12:01:09.194Z,9.17
2023-04-02T12:04:13.508Z,9.05
2023-04-02T12:06:47.238Z,8.87
2023-04-02T12:09:24.830Z,8.89
2023-04-02T12:11:54.432Z,8.89
2023-04-02T12:14:33.203Z,8.88
2023-04-02T12:17:00.453Z,9.04
2023-04-02T12:19:30.576Z,9.19
2023-04-02T12:21:59.450Z,9.24
2023-04-02T12:24:31.338Z,9.40
2023-04-02T12:27:18.321Z,9.60
2023-04-02T12:29:45.046Z,9.75
2023-04-02T12:32:25.949Z,9.95
2023-04-02T12:34:55.115Z,9.96
2023-04-02T12:37:27.957Z,10.01
2023-04-02T12:40:07.069Z,9.89
2023-04-02T12:42:36.325Z,9.68
2023-04-02T12:45:05.440Z,9.60
2023-04-02T12:47:32.902Z,9.55
2023-04-02T12:50:01.809Z,9.61
2023-04-02T12:52:29.472Z,9.56
2023-04-02T12:55:02.553Z,9.58
2023-04-02T12:57:29.325Z,9.43
2023-04-02T13:00:01.518Z,9.39
2023-04-02T13:02:31.022Z,9.37
2023-04-02T13:05:01.289Z,9.27
2023-04-02T13:07:33.588Z,9.37
2023-04-02T13:10:21.763Z,9.33
2023-04-02T13:12:48.530Z,9.31
2023-04-02T13:15:23.820Z,9.41
2023-04-02T13:18:12.319Z,9.39
2023-04-02T13:20:43.557Z,9.34
2023-04-02T13:23:28.765Z,8.97
2023-04-02T13:26:14.800Z,8.77
2023-04-02T13:28:42.161Z,8.73
2023-04-02T13:31:16.767Z,8.63
2023-04-02T13:33:43.502Z,8.52
2023-04-02T13:36:14.644Z,8.42
2023-04-02T13:38:41.753Z,8.51
2023-04-02T13:41:21.434Z,8.66
2023-04-02T13:43:52.077Z,8.67
2023-04-02T13:46:24.651Z,8.76
2023-04-02T13:48:53.062Z,8.71
2023-04-02T13:51:22.773Z,8.71
2023-04-02T13:53:54.459Z,8.66
2023-04-02T13:56:22.897Z,8.52
2023-04-02T13:58:49.534Z,8.45
2023-04-02T14:01:16.251Z,8.19
2023-04-02T14:03:43.346Z,8.25
2023-04-02T14:06:35.863Z,8.58
2023-04-02T14:09:31.966Z,8.68
2023-04-02T14:12:17.251Z,8.84
2023-04-02T14:15:02.757Z,8.83
2023-04-02T14:17:47.419Z,8.73
2023-04-02T14:20:39.215Z,8.74
2023-04-02T14:23:29.734Z,8.68
2023-04-02T14:26:15.356Z,8.59
2023-04-02T14:29:01.528Z,8.53
2023-04-02T14:31:37.319Z,8.28
2023-04-02T14:34:32.948Z,8.00
2023-04-02T14:37:32.587Z,7.85
2023-04-02T14:40:02.335Z,7.80
2023-04-02T14:42:40.753Z,7.87
2023-04-02T14:45:10.463Z,8.07
2023-04-02T14:47:48.022Z,8.47
2023-04-02T14:50:23.596Z,8.95
2023-04-02T14:52:56.863Z,9.11
2023-04-02T14:55:34.542Z,9.02
2023-04-02T14:58:05.427Z,8.97
2023-04-02T15:00:45.827Z,8.69
2023-04-02T15:03:21.341Z,8.65
2023-04-02T15:05:53.915Z,8.65
2023-04-02T15:08:35.162Z,8.66
2023-04-02T15:11:12.231Z,8.80
2023-04-02T15:14:00.780Z,8.99
2023-04-02T15:16:27.874Z,9.34
2023-04-02T15:18:59.562Z,9.49
2023-04-02T15:21:49.862Z,9.64
2023-04-02T15:24:40.985Z,9.69
2023-04-02T15:27:33.027Z,9.99
2023-04-02T15:30:14.978Z,10.12
2023-04-02T15:32:43.278Z,10.16
2023-04-02T15:35:28.768Z,10.10
2023-04-02T15:38:01.501Z,10.01
2023-04-02T15:40:34.093Z,10.02
2023-04-02T15:43:19.849Z,9.98
2023-04-02T15:45:55.550Z,9.81
2023-04-02T15:48:59.531Z,9.54
2023-04-02T15:51:41.240Z,9.20
2023-04-02T15:54:07.803Z,8.93
2023-04-02T15:57:09.862Z,8.86
2023-04-02T15:59:55.170Z,8.69
2023-04-02T16:02:41.155Z,8.33
2023-04-02T16:05:19.949Z,8.07
2023-04-02T16:08:05.016Z,7.94
2023-04-02T16:10:42.608Z,7.80
2023-04-02T16:13:19.262Z,7.66
2023-04-02T16:15:52.142Z,7.38
2023-04-02T16:18:38.177Z,7.23
2023-04-02T16:21:05.005Z,7.11
2023-04-02T16:23:36.495Z,6.95
2023-04-02T16:26:30.972Z,6.99
2023-04-02T16:29:12.209Z,6.99
2023-04-02T16:31:58.977Z,6.87
2023-04-02T16:35:01.823Z,6.92
2023-04-02T16:37:50.302Z,6.86
2023-04-02T16:40:37.675Z,6.82
2023-04-02T16:43:24.694Z,6.92
2023-04-02T16:46:28.367Z,7.01
2023-04-02T16:49:17.436Z,6.99
2023-04-02T16:52:08.040Z,6.86
2023-04-02T16:55:03.755Z,6.83
2023-04-02T16:57:52.353Z,6.80
2023-04-02T17:00:25.236Z,6.68
2023-04-02T17:03:11.258Z,6.67
2023-04-02T17:06:22.543Z,6.61
2023-04-02T17:09:01.936Z,6.54
2023-04-02T17:11:44.360Z,6.37
2023-04-02T17:14:32.728Z,6.42
2023-04-02T17:17:03.635Z,6.33
2023-04-02T17:19:32.277Z,6.38
2023-04-02T17:22:04.529Z,6.47
2023-04-02T17:24:41.628Z,6.53
2023-04-02T17:27:26.807Z,6.49
2023-04-02T17:30:00.039Z,6.42
2023-04-02T17:32:33.191Z,6.43
2023-04-02T17:35:17.201Z,6.49
2023-04-02T17:38:07.548Z,6.53
2023-04-02T17:40:59.022Z,6.59
2023-04-02T17:43:41.326Z,6.57
2023-04-02T17:46:16.813Z,6.51
2023-04-02T17:48:50.590Z,6.47
2023-04-02T17:51:30.346Z,6.48
2023-04-02T17:54:20.441Z,6.48
2023-04-02T17:56:58.623Z,6.42
2023-04-02T17:59:46.662Z,6.30
2023-04-02T18:02:16.493Z,6.33
2023-04-02T18:05:27.717Z,6.34
2023-04-02T18:08:15.853Z,6.33
2023-04-02T18:10:45.561Z,6.35
2023-04-02T18:13:27.396Z,6.28
2023-04-02T18:16:00.238Z,6.28
2023-04-02T18:18:58.021Z,6.27
2023-04-02T18:21:30.693Z,6.30
2023-04-02T18:24:22.201Z,6.36
2023-04-02T18:26:54.803Z,6.38
2023-04-02T18:29:27.504Z,6.40
2023-04-02T18:32:06.307Z,6.42
2023-04-02T18:34:55.001Z,6.42
2023-04-02T18:37:39.892Z,6.41
2023-04-02T18:40:15.621Z,6.37
2023-04-02T18:43:06.671Z,6.38
2023-04-02T18:45:51.562Z,6.29
2023-04-02T18:48:21.157Z,6.17
2023-04-02T18:50:48.874Z,5.94
2023-04-02T18:53:18.690Z,5.89
2023-04-02T18:55:50.110Z,5.87
2023-04-02T18:58:25.811Z,5.91
2023-04-02T19:00:53.576Z,5.89
2023-04-02T19:03:28.003Z,6.01
2023-04-02T19:06:19.161Z,5.79
2023-04-02T19:08:54.883Z,5.65
2023-04-02T19:11:29.354Z,5.65
2023-04-02T19:14:01.244Z,5.43
2023-04-02T19:16:49.826Z,5.30
2023-04-02T19:19:28.289Z,5.18
2023-04-02T19:22:21.880Z,5.19
2023-04-02T19:25:03.211Z,5.11
2023-04-02T19:27:50.287Z,5.02
2023-04-02T19:30:38.268Z,4.87
2023-04-02T19:33:42.671Z,4.89
2023-04-02T19:36:24.391Z,4.92
2023-04-02T19:39:28.747Z,4.95
2023-04-02T19:42:12.898Z,4.95
2023-04-02T19:44:44.660Z,4.96
2023-04-02T19:47:11.630Z,5.05
2023-04-02T19:49:38.328Z,5.01
2023-04-02T19:52:05.318Z,4.98
2023-04-02T19:54:32.005Z,5.02
2023-04-02T19:57:00.035Z,5.00
2023-04-02T19:59:27.233Z,5.00
2023-04-02T20:01:53.847Z,5.02
2023-04-02T20:04:20.746Z,4.99
2023-04-02T20:06:47.420Z,5.02
2023-04-02T20:09:14.137Z,4.97
2023-04-02T20:11:40.961Z,5.07
2023-04-02T20:14:07.631Z,4.99
2023-04-02T20:16:36.592Z,4.76
2023-04-02T20:19:03.578Z,4.78
2023-04-02T20:21:37.940Z,4.48
2023-04-02T20:24:08.260Z,4.48
2023-04-02T20:26:36.275Z,4.20
2023-04-02T20:29:03.202Z,4.05
2023-04-02T20:31:30.039Z,4.01
2023-04-02T20:33:58.861Z,3.92
2023-04-02T20:36:25.874Z,3.77
2023-04-02T20:38:52.730Z,3.57
2023-04-02T20:41:20.028Z,3.63
2023-04-02T20:43:46.717Z,3.73
2023-04-02T20:46:13.772Z,3.79
2023-04-02T20:48:40.953Z,3.87
2023-04-02T20:51:10.101Z,3.75
2023-04-02T20:53:38.088Z,3.75
2023-04-02T20:56:10.188Z,3.70
2023-04-02T20:58:38.166Z,3.68
2023-04-02T21:01:19.370Z,3.50
2023-04-02T21:03:46.448Z,3.30
2023-04-02T21:06:21.950Z,3.16
2023-04-02T21:08:49.604Z,3.12
2023-04-02T21:11:17.033Z,3.13
2023-04-02T21:13:45.462Z,3.13
2023-04-02T21:16:21.000Z,3.11
2023-04-02T21:18:49.700Z,3.17
2023-04-02T21:21:17.128Z,3.05
2023-04-02T21:23:45.173Z,2.97
2023-04-02T21:26:15.071Z,3.01
2023-04-02T21:28:42.687Z,2.84
2023-04-02T21:31:12.454Z,2.74
2023-04-02T21:33:44.398Z,2.58
2023-04-02T21:36:17.123Z,2.51
2023-04-02T21:38:49.241Z,2.49
2023-04-02T21:41:22.356Z,2.48
2023-04-02T21:43:50.073Z,2.58
2023-04-02T21:46:19.375Z,2.48
2023-04-02T21:48:46.791Z,2.41
2023-04-02T21:51:18.908Z,2.39
2023-04-02T21:53:46.213Z,2.41
2023-04-02T21:56:18.702Z,2.39
2023-04-02T21:58:47.204Z,2.27
2023-04-02T22:01:26.692Z,2.17
2023-04-02T22:03:55.428Z,2.04
2023-04-02T22:06:23.718Z,2.00
2023-04-02T22:08:59.715Z,1.83
2023-04-02T22:11:29.849Z,1.66
2023-04-02T22:13:56.911Z,1.79
2023-04-02T22:16:26.614Z,1.84
2023-04-02T22:18:55.656Z,1.76
2023-04-02T22:21:23.044Z,1.67
2023-04-02T22:23:49.796Z,1.61
2023-04-02T22:26:17.751Z,1.59
2023-04-02T22:28:44.440Z,1.48
2023-04-02T22:31:17.141Z,1.46
2023-04-02T22:33:44.953Z,1.36
2023-04-02T22:36:12.724Z,1.44
2023-04-02T22:38:39.568Z,1.39
2023-04-02T22:41:14.692Z,1.30
2023-04-02T22:43:44.059Z,1.27
2023-04-02T22:46:13.246Z,1.16
2023-04-02T22:48:40.521Z,0.96
2023-04-02T22:51:08.440Z,0.93
2023-04-02T22:53:36.634Z,1.01
2023-04-02T22:56:06.987Z,1.00
2023-04-02T22:58:34.819Z,0.99
2023-04-02T23:01:06.843Z,1.02
2023-04-02T23:03:33.789Z,0.95
2023-04-02T23:06:02.486Z,1.12
2023-04-02T23:08:29.156Z,1.23
2023-04-02T23:11:14.406Z,1.33
2023-04-02T23:13:41.881Z,1.34
2023-04-02T23:16:11.800Z,1.45
2023-04-02T23:18:39.674Z,1.41
2023-04-02T23:21:06.570Z,1.30
2023-04-02T23:23:33.902Z,1.00
2023-04-02T23:26:08.821Z,0.78
2023-04-02T23:28:36.792Z,0.87
2023-04-02T23:31:05.374Z,0.64
2023-04-02T23:33:32.451Z,0.56
2023-04-02T23:35:59.222Z,0.55
2023-04-02T23:38:27.010Z,0.70
2023-04-02T23:40:53.688Z,0.87
2023-04-02T23:43:20.363Z,0.88
2023-04-02T23:45:50.707Z,0.99
2023-04-02T23:48:17.596Z,1.09
2023-04-02T23:50:45.413Z,1.16
2023-04-02T23:53:12.800Z,1.09
2023-04-02T23:55:39.905Z,1.13
2023-04-02T23:58:06.833Z,0.91
